Latest Weather Observations for Minnipa RS

IDS60801

Issued at 11:35 am CDT Sunday 26 October 2014 (issued every 30 minutes, with the page automatically refreshed every 10 minutes)

About weather observations | Map of weather stations | Latest weather observations for SA | Other Formats
Station Details ID: 018195 Name: MINNIPA PIRSA Lat: -32.84 Lon: 135.15 Height: 165.0 m
Data from the previous 72 hours. | See also: Recent months at Minnipa RS
Date/Time
CDT
Temp
°C
App
Temp
°C
Dew
Point
Rel
Hum
%
Delta-T
°C
Wind Press
QNH
hPa
Press
MSL
hPa
Rain
since 9 am
mm
Dir
 
Spd
km/h
Gust
km/h
Spd
kts
Gust
kts
26/11:30am 25.7 22.1 14.2 49 6.9 NE 26 33 14 18 1009.8 - 1.4
26/11:00am 21.4 18.1 15.0 67 3.8 NE 26 32 14 17 1010.5 - 1.4
26/10:30am 19.8 16.2 15.2 75 2.7 NE 28 35 15 19 1011.2 - 1.4
26/10:00am 21.0 20.3 15.3 70 3.4 NW 13 24 7 13 1012.0 - 1.4
26/09:30am 19.7 19.3 14.1 70 3.3 N 9 17 5 9 1013.7 - 0.0
26/09:00am 19.1 18.4 13.3 69 3.3 W 9 19 5 10 1015.5 1015.2 0.2
26/08:30am 19.6 19.0 13.5 68 3.5 SSW 9 15 5 8 1015.3 - 0.0
26/08:26am 19.4 18.3 13.1 67 3.6 S 11 15 6 8 1014.8 - 0.0
26/08:00am 19.0 17.3 12.3 65 3.8 ESE 13 30 7 16 1012.8 - 0.0
26/07:30am 20.7 17.7 10.5 52 5.6 ENE 17 20 9 11 1011.4 - 0.0
26/07:00am 20.1 16.5 10.5 54 5.2 ENE 20 26 11 14 1011.0 - 0.0
26/06:30am 20.2 16.7 10.3 53 5.4 E 19 24 10 13 1010.7 - 0.0
26/06:00am 19.7 17.5 10.7 56 4.9 SE 13 19 7 10 1011.3 1011.0 0.0
26/05:30am 20.7 16.5 9.9 50 5.9 ENE 22 32 12 17 1011.3 - 0.0
26/05:00am 19.5 17.7 10.8 57 4.8 ESE 11 17 6 9 1011.9 - 0.0
26/04:30am 20.0 18.4 11.5 58 4.7 SSW 11 19 6 10 1013.3 - 0.0
26/04:04am 21.7 16.4 9.9 47 6.4 SW 28 46 15 25 1014.6 - 0.0
26/04:00am 21.4 16.4 8.0 42 7.0 SSW 24 39 13 21 1014.3 - 0.0
26/03:43am 21.4 15.5 7.3 40 7.3 SSW 28 41 15 22 1012.6 - 0.0
26/03:30am 20.8 15.5 5.2 36 7.7 ENE 22 26 12 14 1010.6 - 0.0
26/03:00am 20.5 15.7 5.7 38 7.4 ENE 20 24 11 13 1010.6 1010.4 0.0
26/02:30am 20.2 15.3 6.9 42 6.8 ENE 22 26 12 14 1010.8 - 0.0
26/02:00am 19.4 14.6 8.7 50 5.6 ENE 24 30 13 16 1011.4 - 0.0
26/01:30am 19.2 15.4 9.9 55 5.0 ENE 20 26 11 14 1012.6 - 0.0
26/01:00am 16.6 14.5 9.8 64 3.6 E 11 13 6 7 1013.2 - 0.0
26/12:30am 17.3 14.5 10.0 62 3.9 ESE 15 17 8 9 1013.9 - 0.0
26/12:00am 17.8 15.4 9.9 60 4.2 ESE 13 15 7 8 1014.0 1013.7 0.0
 
Date/Time
CDT
Temp
°C
App
Temp
°C
Dew
Point
Rel
Hum
%
Delta-T
°C
Wind Press
QNH
hPa
Press
MSL
hPa
Rain
since 9 am
mm
Dir
 
Spd
km/h
Gust
km/h
Spd
kts
Gust
kts
25/11:30pm 18.3 16.3 10.2 59 4.4 SE 11 15 6 8 1014.5 - 0.0
25/11:00pm 18.4 15.7 10.5 60 4.3 SE 15 17 8 9 1014.8 - 0.0
25/10:30pm 18.3 15.6 10.4 60 4.3 SE 15 19 8 10 1015.5 - 0.0
25/10:00pm 19.0 17.0 10.3 57 4.7 SSE 11 13 6 7 1015.7 - 0.0
25/09:30pm 20.2 18.2 10.0 52 5.5 SSE 11 13 6 7 1015.9 - 0.0
25/09:00pm 21.2 19.2 10.1 49 6.0 S 11 17 6 9 1015.9 1015.7 0.0
25/08:30pm 22.3 19.8 8.4 41 7.4 S 11 13 6 7 1015.8 - 0.0
25/08:00pm 24.1 21.4 5.5 30 9.5 S 9 13 5 7 1015.5 - 0.0
25/07:30pm 26.0 22.7 4.5 25 10.9 SSW 11 13 6 7 1015.5 - 0.0
25/07:00pm 28.3 24.2 4.6 22 12.2 S 15 19 8 10 1015.4 - 0.0
25/06:30pm 29.4 24.9 4.1 20 13.0 SW 17 20 9 11 1015.3 - 0.0
25/06:00pm 30.1 25.4 3.2 18 13.7 SSW 17 22 9 12 1015.2 1014.9 0.0
25/05:30pm 30.2 25.5 3.3 18 13.7 SSW 17 24 9 13 1015.1 - 0.0
25/05:00pm 30.1 25.0 3.2 18 13.7 SSW 19 30 10 16 1015.3 - 0.0
25/04:30pm 30.3 24.9 2.5 17 14.0 S 20 28 11 15 1015.2 - 0.0
25/04:00pm 30.2 25.0 2.5 17 13.9 SSW 19 33 10 18 1015.3 - 0.0
25/03:30pm 30.4 24.1 1.8 16 14.2 SW 24 33 13 18 1015.9 - 0.0
25/03:00pm 30.0 23.9 0.6 15 14.3 SW 22 35 12 19 1016.1 1015.9 0.0
25/02:30pm 30.2 25.6 5.5 21 13.1 SW 19 35 10 19 1016.4 - 0.0
25/02:00pm 28.4 23.9 5.9 24 11.9 SW 19 30 10 16 1017.0 - 0.0
25/01:30pm 27.1 23.2 7.0 28 10.7 SW 17 26 9 14 1017.1 - 0.0
25/01:00pm 25.7 24.2 9.1 35 9.1 W 7 15 4 8 1017.5 - 0.0
25/12:30pm 24.2 22.3 10.5 42 7.6 SW 11 17 6 9 1018.3 - 0.0
25/12:00pm 22.9 22.0 10.7 46 6.8 W 6 13 3 7 1018.5 1018.2 0.0
25/11:30am 20.9 20.0 11.5 55 5.2 SSW 7 13 4 7 1018.9 - 0.0
25/11:00am 19.5 19.2 12.7 65 3.9 SW 6 11 3 6 1019.1 - 0.0
25/10:30am 17.5 17.4 13.2 76 2.4 SW 6 11 3 6 1019.3 - 0.0
25/10:00am 15.4 15.5 14.4 94 0.6 SSW 7 11 4 6 1019.3 - 0.0
25/09:30am 14.0 13.9 13.4 96 0.3 S 6 9 3 5 1019.4 - 0.0
25/09:00am 13.9 13.2 13.3 96 0.3 SSW 9 11 5 6 1019.6 1019.3 0.0
25/08:30am 13.6 13.2 13.0 96 0.3 S 7 11 4 6 1019.3 - 0.0
25/08:00am 13.4 12.2 12.8 96 0.3 S 11 15 6 8 1019.0 - 0.0
25/07:30am 13.2 12.3 12.6 96 0.3 SSW 9 15 5 8 1019.1 - 0.0
25/07:00am 12.9 11.5 12.3 96 0.3 S 11 13 6 7 1018.8 - 0.0
25/06:30am 12.8 11.0 12.0 95 0.4 S 13 19 7 10 1018.7 - 0.0
25/06:00am 13.0 12.0 12.2 95 0.4 SSW 9 13 5 7 1018.5 1018.2 0.0
25/05:30am 12.8 11.3 12.0 95 0.4 SW 11 15 6 8 1018.6 - 0.0
25/05:00am 12.4 11.2 11.6 95 0.4 W 9 13 5 7 1018.6 - 0.0
25/04:30am 13.0 12.5 12.2 95 0.4 S 6 11 3 6 1018.1 - 0.0
25/04:00am 12.6 12.4 11.7 94 0.5 S 4 7 2 4 1017.7 - 0.0
25/03:30am 12.5 13.0 11.6 94 0.5 CALM 0 0 0 0 1017.3 - 0.0
25/03:00am 12.7 11.9 11.8 94 0.5 SSE 7 11 4 6 1016.9 1016.7 0.0
25/02:30am 12.6 11.7 11.5 93 0.6 SSE 7 13 4 7 1016.6 - 0.0
25/02:00am 13.5 12.2 12.4 93 0.6 S 11 13 6 7 1017.0 - 0.0
25/01:30am 13.5 12.1 12.2 92 0.7 S 11 15 6 8 1017.6 - 0.0
25/01:00am 13.9 12.5 12.3 90 0.9 S 11 13 6 7 1017.6 - 0.0
25/12:30am 14.1 13.1 12.3 89 1.0 S 9 11 5 6 1017.7 - 0.0
25/12:00am 14.8 13.9 12.5 86 1.3 S 9 13 5 7 1017.7 1017.4 0.0
 
Date/Time
CDT
Temp
°C
App
Temp
°C
Dew
Point
Rel
Hum
%
Delta-T
°C
Wind Press
QNH
hPa
Press
MSL
hPa
Rain
since 9 am
mm
Dir
 
Spd
km/h
Gust
km/h
Spd
kts
Gust
kts
24/11:30pm 15.2 13.9 12.5 84 1.5 SW 11 15 6 8 1017.9 - 0.0
24/11:00pm 15.8 14.5 12.4 80 1.9 SSW 11 17 6 9 1017.7 - 0.0
24/10:30pm 16.6 14.6 12.6 77 2.2 SSW 15 19 8 10 1017.6 - 0.0
24/10:00pm 17.3 15.5 12.0 71 2.9 SSW 13 17 7 9 1017.1 - 0.0
24/09:30pm 18.3 16.3 11.4 64 3.8 SSW 13 17 7 9 1016.8 - 0.0
24/09:00pm 18.9 16.6 10.5 58 4.6 SSW 13 15 7 8 1016.3 1016.1 0.0
24/08:30pm 20.0 17.2 9.9 52 5.5 S 15 20 8 11 1015.7 - 0.0
24/08:00pm 21.1 17.1 9.0 46 6.5 SSW 20 24 11 13 1015.3 - 0.0
24/07:30pm 22.4 17.5 8.5 41 7.4 SSW 24 32 13 17 1014.8 - 0.0
24/07:00pm 24.5 19.5 8.0 35 8.8 SW 24 32 13 17 1014.5 - 0.0
24/06:30pm 26.7 21.8 6.7 28 10.6 SW 22 32 12 17 1014.3 - 0.0
24/06:00pm 27.8 22.7 7.6 28 10.9 SW 24 33 13 18 1013.9 1013.6 0.0
24/05:30pm 29.9 24.4 5.9 22 12.8 SW 24 30 13 16 1013.8 - 0.0
24/05:00pm 30.5 25.3 5.7 21 13.2 SW 22 30 12 16 1013.5 - 0.0
24/04:30pm 30.9 25.6 6.7 22 13.1 SW 24 32 13 17 1013.2 - 0.0
24/04:00pm 31.9 24.6 4.6 18 14.4 SW 32 39 17 21 1013.0 - 0.0
24/03:30pm 34.9 27.9 6.2 17 15.7 SW 32 43 17 23 1012.5 - 0.0
24/03:00pm 36.4 31.8 3.6 13 17.4 W 17 32 9 17 1012.5 1012.2 0.0
24/02:30pm 36.3 31.3 3.5 13 17.4 W 19 24 10 13 1013.0 - 0.0
24/02:00pm 35.8 30.7 3.1 13 17.2 W 19 28 10 15 1013.3 - 0.0
24/01:30pm 34.7 30.4 3.3 14 16.4 W 15 22 8 12 1013.5 - 0.0
24/01:00pm 33.4 28.5 2.3 14 15.9 W 17 26 9 14 1013.9 - 0.0
24/12:30pm 34.3 29.6 3.0 14 16.3 W 17 24 9 13 1014.2 - 0.0
24/12:00pm 34.0 28.9 2.8 14 16.1 NNW 19 28 10 15 1014.5 1014.2 0.0
24/11:30am 32.5 28.6 3.5 16 15.0 W 13 22 7 12 1014.9 - 0.0
24/11:00am 31.2 28.3 4.9 19 13.9 WNW 9 15 5 8 1015.1 - 0.0
24/10:30am 29.2 26.4 5.3 22 12.5 N 9 13 5 7 1015.0 - 0.0
24/10:00am 27.0 25.0 6.4 27 10.9 SSW 6 13 3 7 1015.2 - 0.0
24/09:30am 25.2 22.4 6.9 31 9.6 S 11 15 6 8 1015.3 - 0.0
24/09:00am 22.7 18.8 6.9 36 8.2 SSW 17 26 9 14 1015.3 1015.0 0.0
24/08:30am 23.1 22.2 6.0 33 8.7 CALM 0 22 0 12 1014.6 - 0.0
24/08:00am 23.3 19.1 5.7 32 9.0 N 17 20 9 11 1013.9 - 0.0
24/07:30am 22.4 17.8 5.8 34 8.4 N 19 22 10 12 1013.6 - 0.0
24/07:00am 21.0 16.4 6.5 39 7.4 NNE 20 24 11 13 1013.6 - 0.0
24/06:30am 20.0 15.6 6.7 42 6.8 NNE 19 22 10 12 1013.2 - 0.0
24/06:00am 19.7 15.4 6.8 43 6.6 NE 19 22 10 12 1012.8 1012.5 0.0
24/05:30am 20.3 16.0 7.0 42 6.8 NNE 19 20 10 11 1012.6 - 0.0
24/05:00am 20.5 16.1 6.4 40 7.1 NNE 19 22 10 12 1012.7 - 0.0
24/04:30am 19.9 15.9 6.6 42 6.7 NNE 17 20 9 11 1012.8 - 0.0
24/04:00am 19.6 15.4 7.4 45 6.3 NNE 19 24 10 13 1012.7 - 0.0
24/03:30am 19.0 14.8 8.4 50 5.5 NE 20 24 11 13 1012.6 - 0.0
24/03:00am 19.1 14.9 8.1 49 5.7 ENE 20 26 11 14 1012.7 1012.4 0.0
24/02:30am 19.7 15.5 8.4 48 5.9 NE 20 24 11 13 1012.9 - 0.0
24/02:00am 19.9 15.8 8.6 48 5.9 NE 20 24 11 13 1013.2 - 0.0
24/01:30am 20.0 16.4 8.4 47 6.1 NE 17 20 9 11 1014.2 - 0.0
24/01:00am 20.5 16.4 8.5 46 6.3 NE 20 26 11 14 1014.3 - 0.0
24/12:30am 19.9 15.8 8.6 48 5.9 ENE 20 26 11 14 1014.6 - 0.0
24/12:00am 19.5 16.3 8.5 49 5.8 ENE 15 17 8 9 1015.2 1014.9 0.0
 
Date/Time
CDT
Temp
°C
App
Temp
°C
Dew
Point
Rel
Hum
%
Delta-T
°C
Wind Press
QNH
hPa
Press
MSL
hPa
Rain
since 9 am
mm
Dir
 
Spd
km/h
Gust
km/h
Spd
kts
Gust
kts
23/11:30pm 19.8 17.4 8.5 48 5.9 ENE 11 15 6 8 1015.7 - 0.0
23/11:00pm 20.1 17.7 8.8 48 6.0 ESE 11 15 6 8 1016.2 - 0.0
23/10:30pm 19.7 17.3 8.7 49 5.8 E 11 13 6 7 1016.1 - 0.0
23/10:00pm 20.0 17.6 8.7 48 6.0 S 11 13 6 7 1016.3 - 0.0
23/09:30pm 18.2 16.2 8.5 53 5.0 SE 9 11 5 6 1015.8 - 0.0
23/09:00pm 18.1 16.0 8.1 52 5.2 SE 9 13 5 7 1015.4 1015.1 0.0
23/08:30pm 19.7 17.3 8.7 49 5.8 SSE 11 13 6 7 1015.7 - 0.0
23/08:00pm 20.5 18.1 8.5 46 6.3 S 11 13 6 7 1015.6 - 0.0
23/07:30pm 22.3 19.6 8.8 42 7.2 SSW 13 20 7 11 1015.6 - 0.0
23/07:00pm 24.2 20.4 9.0 38 8.3 SSW 19 24 10 13 1015.5 - 0.0
23/06:30pm 25.8 21.0 8.8 34 9.3 SSW 24 32 13 17 1015.1 - 0.0
23/06:00pm 27.7 23.6 8.6 30 10.5 SW 20 28 11 15 1014.8 1014.5 0.0
23/05:30pm 28.5 23.3 8.7 29 11.0 SW 26 32 14 17 1014.6 - 0.0
23/05:00pm 30.8 25.1 -0.8 13 15.1 W 19 30 10 16 1014.5 - 0.0
23/04:30pm 31.4 26.7 0.7 14 15.1 W 15 24 8 13 1014.5 - 0.0
23/04:00pm 31.1 27.0 2.3 16 14.5 W 13 20 7 11 1014.4 - 0.0
23/03:30pm 31.0 26.8 3.9 18 14.0 W 15 28 8 15 1014.6 - 0.0
23/03:00pm 30.0 25.7 3.1 18 13.6 NNW 15 24 8 13 1015.0 1014.7 0.0
23/02:30pm 29.9 26.5 3.8 19 13.4 NW 11 19 6 10 1015.3 - 0.0
23/02:00pm 29.8 26.2 5.1 21 13.0 WNW 13 19 7 10 1015.7 - 0.0
23/01:30pm 28.4 25.6 5.3 23 12.1 NW 9 19 5 10 1015.8 - 0.0
23/01:00pm 26.8 24.2 6.2 27 10.8 NNW 9 15 5 8 1016.2 - 0.0
23/12:30pm 25.6 23.5 8.1 33 9.4 S 9 13 5 7 1016.6 - 0.0
23/12:00pm 23.9 23.3 9.1 39 8.0 N 2 9 1 5 1017.3 1017.1 0.0

Other Formats:

Comma delimited format used in spreadsheet applications
http://www.bom.gov.au/fwo/IDS60801/IDS60801.95662.axf

JavaScript Object Notation format (JSON) in row-major order
http://www.bom.gov.au/fwo/IDS60801/IDS60801.95662.json